Time;durP1;ratioP1;P1;durP2;ratioP2;P2;SDS_P1;SDS_P2;PMS_P1;PMS_P2;Temp;Humidity;BMP_temperature;BMP_pressure;BME280_temperature;BME280_humidity;BME280_pressure;Samples;Min_cycle;Max_cycle;Signal;HPM_P1;HPM_P2
2022/11/07 00:01:15;;;;;;;1.75;1.02;;;10.60;99.90;;;;;;5004731;28;20073;-80
2022/11/07 00:03:41;;;;;;;3.25;1.88;;;10.60;99.90;;;;;;5007494;28;20099;-80
2022/11/07 00:06:07;;;;;;;1.25;0.93;;;10.70;99.90;;;;;;5003212;28;20125;-82
2022/11/07 00:08:33;;;;;;;1.85;0.85;;;10.60;99.90;;;;;;4986372;28;20042;-81
2022/11/07 00:11:03;;;;;;;2.80;1.92;;;10.70;99.90;;;;;;4989308;28;20046;-82
2022/11/07 00:13:29;;;;;;;1.92;1.48;;;10.70;99.90;;;;;;5001984;28;20046;-82
2022/11/07 00:16:02;;;;;;;7.10;1.92;;;10.70;99.90;;;;;;4999392;28;20535;-80
2022/11/07 00:18:28;;;;;;;4.72;1.40;;;10.80;99.90;;;;;;5005174;28;20503;-81
2022/11/07 00:20:54;;;;;;;2.13;1.65;;;10.80;99.90;;;;;;5003064;28;20141;-82
2022/11/07 00:23:20;;;;;;;9.63;1.35;;;10.80;99.90;;;;;;5015789;28;20050;-82
2022/11/07 00:25:46;;;;;;;2.50;2.05;;;10.80;99.90;;;;;;5007920;28;20091;-80
2022/11/07 00:28:11;;;;;;;1.40;1.30;;;10.70;99.90;;;;;;5000250;28;20046;-80
2022/11/07 00:30:37;;;;;;;4.25;1.08;;;10.70;99.90;;;;;;5002807;28;20048;-81
2022/11/07 00:33:03;;;;;;;2.83;1.75;;;10.70;99.90;;;;;;4986604;28;22162;-84
2022/11/07 00:35:29;;;;;;;3.92;2.03;;;10.80;99.90;;;;;;5019735;28;20038;-81
2022/11/07 00:37:55;;;;;;;4.10;1.25;;;10.80;99.90;;;;;;5026138;28;20108;-81
2022/11/07 00:40:21;;;;;;;2.22;1.02;;;10.80;99.90;;;;;;5003637;28;20045;-81
2022/11/07 00:42:46;;;;;;;10.88;1.83;;;10.80;99.90;;;;;;5000949;28;20054;-82
2022/11/07 00:45:12;;;;;;;8.02;1.50;;;10.80;99.90;;;;;;5005306;28;20050;-83
2022/11/07 00:47:38;;;;;;;2.72;1.42;;;10.70;99.90;;;;;;5002352;28;20093;-82
2022/11/07 00:50:05;;;;;;;5.38;1.38;;;10.70;99.90;;;;;;5003081;28;20042;-82
2022/11/07 00:52:31;;;;;;;2.25;1.48;;;10.60;99.90;;;;;;5000786;28;20046;-81
2022/11/07 00:54:56;;;;;;;1.48;1.00;;;10.50;99.90;;;;;;4993750;28;20560;-80
2022/11/07 00:57:22;;;;;;;3.53;0.88;;;10.50;99.90;;;;;;5006364;28;20522;-81
2022/11/07 00:59:48;;;;;;;1.65;1.00;;;10.40;99.90;;;;;;5005783;28;20054;-85
2022/11/07 01:02:14;;;;;;;7.47;1.50;;;10.50;99.90;;;;;;5017775;28;20056;-81
2022/11/07 01:07:24;;;;;;;11.35;1.65;;;10.50;99.90;;;;;;4998765;28;20116;-81
2022/11/07 01:09:49;;;;;;;0.55;0.55;;;10.50;99.90;;;;;;4987277;28;20529;-83
2022/11/07 01:12:15;;;;;;;10.02;1.88;;;10.60;99.90;;;;;;4992693;28;20056;-83
2022/11/07 01:14:41;;;;;;;2.50;1.33;;;10.60;99.90;;;;;;5001269;28;20050;-83
2022/11/07 01:17:07;;;;;;;7.15;1.40;;;10.50;99.90;;;;;;5006135;28;20084;-81
2022/11/07 01:19:32;;;;;;;0.77;0.77;;;10.50;99.90;;;;;;4991196;28;20070;-81
2022/11/07 01:21:58;;;;;;;1.25;1.15;;;10.60;99.90;;;;;;5016959;28;20097;-81
2022/11/07 01:24:24;;;;;;;1.35;1.05;;;10.70;99.90;;;;;;4999553;28;20053;-81
2022/11/07 01:26:50;;;;;;;2.97;1.30;;;10.70;99.90;;;;;;4999963;28;20049;-83
2022/11/07 01:29:17;;;;;;;3.97;1.55;;;10.70;99.90;;;;;;4989383;28;20436;-82
2022/11/07 01:31:43;;;;;;;2.70;1.40;;;10.80;99.90;;;;;;4987775;28;20065;-81
2022/11/07 01:34:09;;;;;;;4.53;1.77;;;10.80;99.90;;;;;;4989612;28;20489;-83
2022/11/07 01:36:36;;;;;;;3.35;1.10;;;10.90;99.90;;;;;;5002148;28;20107;-81
2022/11/07 01:39:03;;;;;;;2.15;1.63;;;10.90;99.90;;;;;;5007992;28;20054;-81
2022/11/07 01:41:31;;;;;;;7.50;1.88;;;11.00;99.90;;;;;;5005275;28;20054;-83
2022/11/07 01:44:02;;;;;;;2.85;1.33;;;11.00;99.90;;;;;;5004112;28;20046;-83
2022/11/07 01:46:35;;;;;;;2.95;1.42;;;11.00;99.90;;;;;;5005584;28;20103;-80
2022/11/07 01:49:19;;;;;;;2.40;1.27;;;11.00;99.90;;;;;;5002603;28;20116;-82
2022/11/07 01:52:13;;;;;;;4.80;0.88;;;11.00;99.90;;;;;;5012479;28;20543;-81
2022/11/07 01:54:43;;;;;;;2.97;1.10;;;11.00;99.90;;;;;;4985175;28;20533;-82
2022/11/07 01:57:14;;;;;;;5.40;1.35;;;11.00;99.90;;;;;;5005811;28;20441;-80
2022/11/07 01:59:40;;;;;;;4.07;1.42;;;11.00;99.90;;;;;;5004815;28;20050;-81
2022/11/07 02:02:07;;;;;;;1.30;0.95;;;11.10;99.90;;;;;;5001661;28;20544;-81
2022/11/07 02:04:33;;;;;;;1.33;0.82;;;11.10;99.90;;;;;;5000923;28;20091;-81
2022/11/07 02:07:19;;;;;;;6.85;1.30;;;11.10;99.90;;;;;;4996753;28;20488;-83
2022/11/07 02:09:45;;;;;;;1.73;1.20;;;11.10;99.90;;;;;;5003100;28;20052;-81
2022/11/07 02:12:11;;;;;;;3.53;1.33;;;11.10;99.90;;;;;;5006668;28;20129;-82
2022/11/07 02:14:37;;;;;;;4.18;1.00;;;11.10;99.90;;;;;;4999359;28;20042;-85
2022/11/07 02:17:03;;;;;;;2.03;0.70;;;11.20;99.90;;;;;;5007145;28;20444;-81
2022/11/07 02:19:58;;;;;;;1.30;0.90;;;11.20;99.90;;;;;;4985436;28;20042;-82
2022/11/07 02:22:39;;;;;;;4.95;1.20;;;11.20;99.90;;;;;;4982271;28;20054;-84
2022/11/07 02:25:14;;;;;;;1.33;1.23;;;11.20;99.90;;;;;;5003669;28;20061;-86
2022/11/07 02:27:41;;;;;;;3.95;1.15;;;11.20;99.90;;;;;;5000150;28;20567;-80
2022/11/07 02:30:16;;;;;;;2.92;1.25;;;11.20;99.90;;;;;;4985169;28;20069;-80
2022/11/07 02:32:43;;;;;;;3.80;0.98;;;11.20;99.90;;;;;;4993977;28;20133;-81
2022/11/07 02:35:38;;;;;;;3.80;1.38;;;11.20;99.90;;;;;;4998097;28;20456;-81
2022/11/07 02:38:43;;;;;;;5.40;1.23;;;11.20;99.90;;;;;;4983699;28;20053;-81
2022/11/07 02:41:21;;;;;;;1.55;1.40;;;11.20;99.90;;;;;;4963928;28;20104;-82
2022/11/07 02:43:55;;;;;;;2.72;1.30;;;11.20;99.90;;;;;;4942965;28;20406;-81
2022/11/07 02:46:22;;;;;;;5.32;0.88;;;11.20;99.90;;;;;;4989676;28;20167;-80
2022/11/07 02:48:51;;;;;;;5.15;1.60;;;11.20;99.90;;;;;;5001859;28;20042;-83
2022/11/07 02:51:16;;;;;;;3.28;1.15;;;11.20;99.90;;;;;;5005639;28;20064;-81
2022/11/07 02:53:42;;;;;;;1.75;0.90;;;11.20;99.90;;;;;;5002168;28;20462;-81
2022/11/07 02:56:08;;;;;;;2.15;1.20;;;11.20;99.90;;;;;;4993849;28;20061;-81
2022/11/07 02:58:35;;;;;;;1.05;0.90;;;11.20;99.90;;;;;;5003011;28;20054;-81
2022/11/07 03:01:05;;;;;;;1.73;1.23;;;11.10;99.90;;;;;;4992507;28;20050;-83
2022/11/07 03:03:37;;;;;;;6.43;1.35;;;11.10;99.90;;;;;;4984171;28;20400;-82
2022/11/07 03:06:03;;;;;;;;;;;11.10;99.90;;;;;;5007131;28;20081;-83
2022/11/07 03:08:29;;;;;;;3.00;1.40;;;11.00;99.90;;;;;;4998726;28;19921;-82
2022/11/07 03:10:55;;;;;;;1.73;1.55;;;11.00;99.90;;;;;;5002279;28;20093;-81
2022/11/07 03:13:20;;;;;;;3.33;1.17;;;11.00;99.90;;;;;;4990254;28;20066;-81
2022/11/07 03:15:46;;;;;;;3.28;1.40;;;11.00;99.90;;;;;;5018969;28;20058;-81
2022/11/07 03:18:12;;;;;;;8.32;1.10;;;11.00;99.90;;;;;;5007817;28;20475;-81
2022/11/07 03:20:37;;;;;;;2.60;1.23;;;11.00;99.90;;;;;;5007591;28;20046;-81
2022/11/07 03:23:03;;;;;;;1.63;1.52;;;11.00;99.90;;;;;;4997116;28;20061;-82
2022/11/07 03:25:29;;;;;;;6.18;1.38;;;10.90;99.90;;;;;;4990886;28;20038;-81
2022/11/07 03:27:54;;;;;;;2.13;1.20;;;10.90;99.90;;;;;;5004773;28;20509;-82
2022/11/07 03:30:20;;;;;;;4.38;1.48;;;10.90;99.90;;;;;;5002758;28;20119;-81
2022/11/07 03:32:46;;;;;;;6.18;1.20;;;10.90;99.90;;;;;;5004598;28;20408;-85
2022/11/07 03:35:11;;;;;;;2.25;1.23;;;11.00;99.90;;;;;;5001833;28;20038;-82
2022/11/07 03:37:37;;;;;;;1.77;0.60;;;11.00;99.90;;;;;;4970802;28;20612;-81
2022/11/07 03:40:03;;;;;;;12.85;1.67;;;11.00;99.90;;;;;;5007733;28;20061;-82
2022/11/07 03:42:29;;;;;;;3.10;1.25;;;11.00;99.90;;;;;;4999074;28;20401;-81
2022/11/07 03:44:55;;;;;;;12.13;1.33;;;11.00;99.90;;;;;;5001369;28;20091;-85
2022/11/07 03:47:20;;;;;;;3.45;0.70;;;11.00;99.90;;;;;;5001971;28;20141;-84
2022/11/07 03:49:46;;;;;;;2.95;1.30;;;11.00;99.90;;;;;;4987673;28;20082;-81
2022/11/07 03:52:12;;;;;;;3.03;0.73;;;11.00;99.90;;;;;;5002961;28;20038;-83
2022/11/07 03:54:37;;;;;;;2.40;0.82;;;11.10;99.90;;;;;;5004261;28;20186;-81
2022/11/07 03:57:03;;;;;;;1.02;0.98;;;11.00;99.90;;;;;;5003116;28;20046;-81
2022/11/07 03:59:29;;;;;;;2.40;1.15;;;11.10;99.90;;;;;;4999923;28;20077;-82
2022/11/07 04:01:54;;;;;;;8.27;1.90;;;11.10;99.90;;;;;;4999044;28;20045;-81
2022/11/07 04:04:20;;;;;;;4.03;1.25;;;11.10;99.90;;;;;;4999524;28;20038;-80
2022/11/07 04:06:46;;;;;;;4.90;1.27;;;11.10;99.90;;;;;;4985700;28;20568;-81
2022/11/07 04:09:11;;;;;;;3.13;0.95;;;11.10;99.90;;;;;;4999569;28;20042;-81
2022/11/07 04:17:19;;;;;;;2.80;0.95;;;11.10;99.90;;;;;;5017874;28;20058;-83
2022/11/07 04:19:49;;;;;;;3.65;1.33;;;11.00;99.90;;;;;;4986689;28;20139;-85
2022/11/07 04:22:15;;;;;;;4.05;1.30;;;11.00;99.90;;;;;;5018739;28;20049;-82
2022/11/07 04:24:45;;;;;;;1.58;1.05;;;11.00;99.90;;;;;;5004850;28;20493;-81
2022/11/07 04:29:55;;;;;;;4.55;1.27;;;11.00;99.90;;;;;;5013591;28;20057;-84
2022/11/07 04:32:23;;;;;;;4.68;0.90;;;10.90;99.90;;;;;;4993749;28;20045;-82
2022/11/07 04:34:52;;;;;;;4.57;1.23;;;10.90;99.90;;;;;;5007045;28;20037;-84
2022/11/07 04:37:18;;;;;;;2.47;1.23;;;10.80;99.90;;;;;;5006488;28;20104;-80
2022/11/07 04:39:46;;;;;;;4.68;1.50;;;10.80;99.90;;;;;;5004647;28;20058;-84
2022/11/07 04:42:12;;;;;;;10.23;1.23;;;10.80;99.90;;;;;;5006907;28;20046;-82
2022/11/07 04:44:38;;;;;;;0.73;0.73;;;10.80;99.90;;;;;;4991692;28;20104;-80
2022/11/07 04:47:03;;;;;;;5.20;1.20;;;10.80;99.90;;;;;;5003520;28;20049;-81
2022/11/07 04:49:29;;;;;;;1.45;1.27;;;10.80;99.90;;;;;;4993346;28;20497;-86
2022/11/07 04:51:58;;;;;;;3.30;1.77;;;10.80;99.90;;;;;;5018335;28;20136;-82
2022/11/07 04:54:24;;;;;;;5.45;2.45;;;10.70;99.90;;;;;;4998980;28;20064;-80
2022/11/07 04:56:50;;;;;;;1.38;1.13;;;10.70;99.90;;;;;;5002494;28;20481;-82
2022/11/07 04:59:15;;;;;;;6.40;1.33;;;10.70;99.90;;;;;;4983139;28;20351;-81
2022/11/07 05:01:41;;;;;;;3.38;1.48;;;10.70;99.90;;;;;;5003418;28;20046;-84
2022/11/07 05:04:07;;;;;;;3.42;1.65;;;10.70;99.90;;;;;;4997846;28;20046;-81
2022/11/07 05:06:35;;;;;;;10.10;1.63;;;10.70;99.90;;;;;;5004555;28;20132;-81
2022/11/07 05:09:01;;;;;;;1.30;1.10;;;10.70;99.90;;;;;;5002548;28;20042;-81
2022/11/07 05:11:26;;;;;;;5.68;1.73;;;10.70;99.90;;;;;;5001209;28;20113;-82
2022/11/07 05:13:52;;;;;;;7.20;0.93;;;10.80;99.90;;;;;;5010370;28;20717;-83
2022/11/07 05:16:18;;;;;;;4.07;1.30;;;10.80;99.90;;;;;;5015555;28;20042;-82
2022/11/07 05:18:44;;;;;;;3.15;1.33;;;10.80;99.90;;;;;;5004462;28;20056;-81
2022/11/07 05:21:10;;;;;;;10.07;1.38;;;10.80;99.90;;;;;;5000135;28;20041;-81
2022/11/07 05:23:35;;;;;;;1.45;1.20;;;10.80;99.90;;;;;;5001160;28;20480;-82
2022/11/07 05:26:01;;;;;;;6.03;2.25;;;10.80;99.90;;;;;;4999387;28;20443;-83
2022/11/07 05:28:29;;;;;;;4.40;1.05;;;10.80;99.90;;;;;;4999777;28;20045;-81
2022/11/07 05:30:59;;;;;;;11.50;1.75;;;10.70;99.90;;;;;;5002322;28;20398;-82
2022/11/07 05:33:25;;;;;;;5.55;1.50;;;10.70;99.90;;;;;;5000457;28;20060;-84
2022/11/07 05:35:51;;;;;;;1.80;1.15;;;10.80;99.90;;;;;;5000554;28;20057;-81
2022/11/07 05:38:17;;;;;;;2.05;1.17;;;10.80;99.90;;;;;;5003032;28;20038;-82
2022/11/07 05:40:42;;;;;;;7.95;1.25;;;10.80;99.90;;;;;;5015451;28;20388;-84
2022/11/07 05:43:12;;;;;;;3.83;1.10;;;10.70;99.90;;;;;;5015965;28;20133;-81
2022/11/07 05:45:37;;;;;;;11.15;2.13;;;10.80;99.90;;;;;;5002425;28;20137;-82
2022/11/07 05:48:11;;;;;;;5.18;1.58;;;10.90;99.90;;;;;;4999653;28;20124;-82
2022/11/07 05:50:38;;;;;;;1.00;0.90;;;10.90;99.90;;;;;;4997865;28;20076;-82
2022/11/07 05:53:05;;;;;;;1.05;0.70;;;10.90;99.90;;;;;;5003266;28;20109;-81
2022/11/07 05:55:31;;;;;;;6.07;1.88;;;10.90;99.90;;;;;;5011860;28;20396;-82
2022/11/07 05:57:57;;;;;;;4.13;1.60;;;11.00;99.90;;;;;;4988361;28;20045;-82
2022/11/07 06:00:23;;;;;;;5.32;1.50;;;10.90;99.90;;;;;;4987576;28;20070;-80
2022/11/07 06:02:59;;;;;;;1.95;1.45;;;11.00;99.90;;;;;;5003475;28;20072;-80
2022/11/07 06:05:25;;;;;;;2.25;1.20;;;10.90;99.90;;;;;;5005098;28;20136;-81
2022/11/07 06:07:51;;;;;;;2.60;1.23;;;11.00;99.90;;;;;;5005387;28;20038;-82
2022/11/07 06:10:16;;;;;;;6.57;1.85;;;11.00;99.90;;;;;;4982192;28;20064;-84
2022/11/07 06:12:42;;;;;;;7.60;2.10;;;10.90;99.90;;;;;;5000027;28;20053;-81
2022/11/07 06:15:08;;;;;;;9.60;2.35;;;10.90;99.90;;;;;;4994243;28;20042;-80
2022/11/07 06:17:34;;;;;;;1.50;1.40;;;10.90;99.90;;;;;;5000168;28;20108;-81
2022/11/07 06:19:59;;;;;;;2.63;1.55;;;10.80;99.90;;;;;;5002748;28;20042;-80
2022/11/07 06:22:28;;;;;;;1.67;1.40;;;10.80;99.90;;;;;;5003417;28;20054;-83
2022/11/07 06:24:55;;;;;;;5.35;1.95;;;10.90;99.90;;;;;;4996274;28;20058;-80
2022/11/07 06:27:21;;;;;;;4.60;2.35;;;10.80;99.90;;;;;;5017712;28;20049;-79
2022/11/07 06:29:46;;;;;;;11.32;2.38;;;10.80;99.90;;;;;;5003302;28;20046;-80
2022/11/07 06:32:12;;;;;;;3.38;1.42;;;10.90;99.90;;;;;;4997072;28;20053;-82
2022/11/07 06:34:38;;;;;;;5.82;2.08;;;10.80;99.90;;;;;;5000701;28;20053;-81
2022/11/07 06:37:03;;;;;;;4.05;1.88;;;10.80;99.90;;;;;;5005658;28;20187;-81
2022/11/07 06:39:29;;;;;;;11.50;2.58;;;10.90;99.90;;;;;;4995314;28;20120;-81
2022/11/07 06:41:55;;;;;;;3.38;2.47;;;10.90;99.90;;;;;;5005056;28;20060;-81
2022/11/07 06:44:20;;;;;;;4.82;1.95;;;10.90;99.90;;;;;;5002206;28;20073;-81
2022/11/07 06:46:46;;;;;;;1.60;1.48;;;10.90;99.90;;;;;;4982321;28;20057;-86
2022/11/07 06:49:13;;;;;;;1.95;1.05;;;10.90;99.90;;;;;;4987980;28;20081;-81
2022/11/07 06:51:39;;;;;;;3.97;1.27;;;11.00;99.90;;;;;;4992229;28;20624;-81
2022/11/07 06:54:04;;;;;;;4.10;1.33;;;11.00;99.90;;;;;;5004144;28;20125;-81
2022/11/07 06:56:30;;;;;;;3.70;1.50;;;11.00;99.90;;;;;;5005545;28;20053;-79
2022/11/07 06:58:55;;;;;;;3.47;1.35;;;11.10;99.90;;;;;;5008560;28;20041;-84
2022/11/07 07:01:21;;;;;;;9.27;1.80;;;11.10;99.90;;;;;;5008756;28;20042;-81
2022/11/07 07:03:47;;;;;;;4.95;1.50;;;11.10;99.90;;;;;;5005026;28;20043;-80
2022/11/07 07:06:15;;;;;;;2.92;1.42;;;11.10;99.90;;;;;;5008808;28;20520;-81
2022/11/07 07:08:41;;;;;;;2.17;1.20;;;11.20;99.90;;;;;;4991946;28;20334;-82
2022/11/07 07:11:10;;;;;;;4.07;2.03;;;11.20;99.90;;;;;;5008710;28;20562;-82
2022/11/07 07:13:36;;;;;;;2.70;1.17;;;11.20;99.90;;;;;;5005752;28;20345;-81
2022/11/07 07:16:03;;;;;;;4.97;2.17;;;11.20;99.90;;;;;;4992802;28;20041;-80
2022/11/07 07:18:29;;;;;;;1.52;1.00;;;11.20;99.90;;;;;;5011425;28;20543;-81
2022/11/07 07:21:08;;;;;;;6.82;2.20;;;11.30;99.90;;;;;;5006614;28;20140;-81
2022/11/07 07:23:36;;;;;;;5.03;1.63;;;11.20;99.90;;;;;;5008010;28;20528;-85
2022/11/07 07:26:02;;;;;;;3.85;2.05;;;11.30;99.90;;;;;;5006326;28;20686;-82
2022/11/07 07:28:28;;;;;;;5.43;1.55;;;11.40;99.90;;;;;;5008293;28;20509;-81
2022/11/07 07:31:12;;;;;;;6.70;1.65;;;11.40;99.90;;;;;;5007379;28;20085;-79
2022/11/07 07:33:38;;;;;;;3.92;1.40;;;11.40;99.90;;;;;;5009238;28;20049;-80
2022/11/07 07:36:04;;;;;;;4.30;1.40;;;11.40;99.90;;;;;;4993248;28;20532;-81
2022/11/07 07:38:30;;;;;;;2.13;1.05;;;11.50;99.90;;;;;;5013399;28;20444;-81
2022/11/07 07:40:57;;;;;;;2.65;1.40;;;11.50;99.90;;;;;;5013626;28;20121;-81
2022/11/07 07:43:23;;;;;;;10.77;1.95;;;11.50;99.90;;;;;;5013132;28;20041;-81
2022/11/07 07:45:49;;;;;;;2.22;1.00;;;11.50;99.90;;;;;;5014630;28;20049;-81
2022/11/07 07:48:15;;;;;;;9.40;1.52;;;11.60;99.90;;;;;;5033144;28;20057;-80
2022/11/07 07:50:40;;;;;;;3.78;1.10;;;11.60;99.90;;;;;;5033605;28;20042;-81
2022/11/07 07:53:06;;;;;;;8.45;1.50;;;11.60;99.90;;;;;;5011799;28;20141;-81
2022/11/07 07:55:32;;;;;;;2.50;0.85;;;11.60;99.90;;;;;;4976769;28;20053;-83
2022/11/07 07:57:57;;;;;;;6.30;1.60;;;11.60;99.90;;;;;;4993575;28;20050;-82
2022/11/07 08:00:23;;;;;;;3.53;1.27;;;11.70;99.90;;;;;;4993788;28;20389;-81
2022/11/07 08:02:49;;;;;;;2.60;1.30;;;11.70;99.90;;;;;;4996174;28;20489;-80
2022/11/07 08:05:14;;;;;;;1.52;1.02;;;11.70;99.90;;;;;;4996132;28;20493;-81
2022/11/07 08:07:48;;;;;;;9.30;1.40;;;11.70;99.90;;;;;;5014409;28;20053;-82
2022/11/07 08:10:15;;;;;;;9.10;1.73;;;11.80;99.90;;;;;;5012531;28;20555;-82
2022/11/07 08:12:45;;;;;;;3.33;1.08;;;11.80;99.90;;;;;;5013368;28;20467;-83
2022/11/07 08:15:13;;;;;;;9.73;1.45;;;11.80;99.90;;;;;;5011924;28;20045;-81
2022/11/07 08:17:39;;;;;;;6.50;2.08;;;11.90;99.90;;;;;;5010483;28;20397;-82
2022/11/07 08:20:06;;;;;;;4.88;1.35;;;11.90;99.90;;;;;;4997878;28;21027;-81
2022/11/07 08:22:32;;;;;;;8.35;1.60;;;12.00;99.90;;;;;;5009696;28;20046;-83
2022/11/07 08:24:57;;;;;;;4.85;1.10;;;12.00;99.90;;;;;;4990444;28;20536;-81
2022/11/07 08:27:23;;;;;;;3.13;1.48;;;12.00;99.90;;;;;;5012004;28;20505;-81
2022/11/07 08:29:49;;;;;;;9.73;2.38;;;12.00;99.90;;;;;;5012755;28;20500;-81
2022/11/07 08:32:14;;;;;;;11.75;2.17;;;12.10;99.90;;;;;;5011504;28;20508;-81
2022/11/07 08:34:40;;;;;;;10.18;1.17;;;12.10;99.90;;;;;;5011591;28;20551;-83
2022/11/07 08:37:08;;;;;;;1.17;0.85;;;12.10;99.90;;;;;;4995413;28;20144;-81
2022/11/07 08:39:34;;;;;;;7.47;1.30;;;12.10;99.90;;;;;;4995152;28;20054;-81
2022/11/07 08:41:59;;;;;;;0.82;0.82;;;12.10;99.90;;;;;;4995177;28;20046;-80
2022/11/07 08:44:25;;;;;;;5.85;1.42;;;12.10;99.90;;;;;;4995001;28;20061;-83
2022/11/07 08:46:51;;;;;;;3.22;1.08;;;12.10;99.90;;;;;;4994575;28;20061;-82
2022/11/07 08:49:16;;;;;;;11.32;1.42;;;12.00;99.90;;;;;;4994502;28;20049;-84
2022/11/07 08:51:42;;;;;;;4.72;1.52;;;12.00;99.90;;;;;;5011934;28;20099;-83
2022/11/07 08:54:07;;;;;;;4.85;1.60;;;12.10;99.90;;;;;;4978178;28;20137;-83
2022/11/07 08:56:33;;;;;;;5.40;1.42;;;12.10;99.90;;;;;;5011730;28;20081;-81
2022/11/07 08:59:00;;;;;;;6.22;1.27;;;12.10;99.90;;;;;;4991879;28;20135;-82
2022/11/07 09:01:25;;;;;;;5.90;1.23;;;12.10;99.90;;;;;;5012454;28;20058;-82
2022/11/07 09:03:51;;;;;;;2.17;0.85;;;12.10;99.90;;;;;;4978732;28;20064;-85
2022/11/07 09:06:17;;;;;;;4.88;1.55;;;12.20;99.90;;;;;;4997921;28;20397;-83
2022/11/07 09:08:43;;;;;;;1.92;0.77;;;12.30;99.90;;;;;;5006495;28;20054;-81
2022/11/07 09:11:09;;;;;;;7.40;1.30;;;12.30;99.90;;;;;;5011894;28;20472;-82
2022/11/07 09:13:38;;;;;;;7.75;1.48;;;12.40;99.90;;;;;;5012475;28;20528;-82
2022/11/07 09:16:04;;;;;;;11.23;2.08;;;12.40;99.90;;;;;;4991963;28;20065;-83
2022/11/07 09:18:31;;;;;;;4.32;1.02;;;12.50;99.90;;;;;;4991562;28;20501;-83
2022/11/07 09:20:58;;;;;;;6.32;1.23;;;12.60;99.90;;;;;;5019948;28;20117;-82
2022/11/07 09:23:27;;;;;;;4.60;1.02;;;12.70;99.90;;;;;;5011907;28;20181;-82
2022/11/07 09:25:52;;;;;;;1.83;0.93;;;12.80;99.90;;;;;;5002101;28;20503;-82
2022/11/07 09:28:18;;;;;;;5.75;1.48;;;12.70;99.90;;;;;;4992409;28;20054;-82
2022/11/07 09:30:44;;;;;;;8.27;1.33;;;12.80;99.90;;;;;;4992150;28;20068;-82
2022/11/07 09:33:09;;;;;;;5.00;0.90;;;12.80;99.90;;;;;;4976153;28;20123;-82
2022/11/07 09:35:35;;;;;;;2.03;1.17;;;12.80;99.90;;;;;;4992366;28;20378;-82
2022/11/07 09:38:01;;;;;;;3.95;1.13;;;12.80;99.90;;;;;;4993406;28;20455;-82
2022/11/07 09:40:42;;;;;;;7.93;1.63;;;12.90;99.90;;;;;;4995503;28;20392;-81
2022/11/07 09:43:16;;;;;;;2.10;0.90;;;12.90;99.90;;;;;;5011995;28;20054;-81
2022/11/07 09:46:06;;;;;;;6.25;1.50;;;13.00;99.90;;;;;;5011216;28;20061;-82
2022/11/07 09:48:41;;;;;;;2.17;1.70;;;12.90;99.90;;;;;;5011026;28;20083;-83
2022/11/07 09:51:14;;;;;;;5.97;1.70;;;12.90;99.90;;;;;;5012154;28;20100;-82
2022/11/07 09:53:45;;;;;;;2.13;1.30;;;12.80;99.90;;;;;;5011710;28;20050;-85
2022/11/07 09:56:13;;;;;;;2.38;1.27;;;12.70;99.90;;;;;;4995141;28;20095;-82
2022/11/07 09:58:44;;;;;;;3.40;1.42;;;12.70;99.90;;;;;;5003442;28;20053;-82
2022/11/07 10:01:15;;;;;;;5.32;1.33;;;12.70;99.90;;;;;;4991425;28;20054;-81
2022/11/07 10:03:41;;;;;;;1.48;1.27;;;12.70;99.90;;;;;;4992586;28;20058;-81
2022/11/07 10:06:10;;;;;;;6.25;1.42;;;12.70;99.90;;;;;;4991970;28;20093;-82
2022/11/07 10:08:45;;;;;;;6.97;1.10;;;12.70;99.90;;;;;;4996706;28;20447;-82
2022/11/07 10:11:41;;;;;;;10.98;1.88;;;12.80;99.90;;;;;;4994555;28;20564;-81
2022/11/07 10:14:31;;;;;;;2.28;0.88;;;12.90;99.90;;;;;;5023418;28;20527;-82
2022/11/07 10:17:19;;;;;;;3.50;0.73;;;12.90;99.90;;;;;;5008753;28;20047;-82
2022/11/07 10:20:20;;;;;;;5.05;1.35;;;13.00;99.90;;;;;;5011280;28;20136;-81
2022/11/07 10:23:29;;;;;;;2.75;0.95;;;13.10;99.90;;;;;;5022782;28;20104;-82
2022/11/07 10:26:11;;;;;;;4.20;1.10;;;13.20;99.90;;;;;;4964079;28;20062;-81
2022/11/07 10:28:47;;;;;;;0.93;0.93;;;13.30;99.90;;;;;;5011132;28;20057;-82
2022/11/07 10:31:14;;;;;;;6.10;1.27;;;13.40;99.90;;;;;;4996536;28;20509;-81
2022/11/07 10:34:16;;;;;;;3.40;1.08;;;13.50;99.90;;;;;;4991837;28;20058;-81
2022/11/07 10:36:42;;;;;;;6.43;0.77;;;13.60;99.90;;;;;;5007604;28;20401;-82
2022/11/07 10:39:17;;;;;;;7.43;1.40;;;13.60;99.90;;;;;;4991761;28;20046;-81
2022/11/07 10:41:57;;;;;;;5.22;1.17;;;13.60;99.90;;;;;;4997883;28;20043;-82
2022/11/07 10:44:25;;;;;;;3.97;1.15;;;13.70;99.90;;;;;;4991023;28;20054;-81
2022/11/07 10:46:51;;;;;;;5.95;1.50;;;13.80;99.90;;;;;;5000181;28;20450;-82
2022/11/07 10:49:23;;;;;;;3.33;1.33;;;13.90;99.90;;;;;;5011213;28;20053;-83
2022/11/07 10:51:50;;;;;;;5.00;1.83;;;14.00;99.90;;;;;;4994985;28;20052;-83
2022/11/07 10:54:24;;;;;;;10.15;1.75;;;14.10;99.90;;;;;;5007546;28;20046;-82
2022/11/07 10:57:10;;;;;;;4.85;1.23;;;14.10;99.90;;;;;;4994535;28;20061;-81
2022/11/07 10:59:39;;;;;;;1.45;0.93;;;14.10;99.90;;;;;;5011351;28;20050;-82
2022/11/07 11:02:25;;;;;;;5.57;1.55;;;14.20;99.90;;;;;;5007804;28;20472;-82
2022/11/07 11:05:02;;;;;;;2.17;0.88;;;14.10;99.90;;;;;;5014532;28;20046;-81
2022/11/07 11:07:39;;;;;;;4.60;1.27;;;14.10;99.90;;;;;;5014597;28;20084;-82
2022/11/07 11:10:26;;;;;;;2.10;1.05;;;14.00;99.90;;;;;;5027421;28;20049;-81
2022/11/07 11:12:53;;;;;;;6.72;1.13;;;13.90;99.90;;;;;;5014142;28;20203;-80
2022/11/07 11:15:24;;;;;;;0.68;0.60;;;13.90;99.90;;;;;;5014563;28;20486;-81
2022/11/07 11:18:05;;;;;;;2.80;0.77;;;13.90;99.90;;;;;;5011582;28;20052;-81
2022/11/07 11:20:41;;;;;;;5.07;1.15;;;13.90;99.90;;;;;;4994720;28;20054;-80
2022/11/07 11:23:21;;;;;;;4.18;0.98;;;14.00;99.90;;;;;;4995498;28;20093;-83
2022/11/07 11:25:49;;;;;;;1.90;1.23;;;14.10;99.90;;;;;;5005736;28;20104;-82
2022/11/07 11:28:40;;;;;;;1.73;0.93;;;14.20;99.90;;;;;;5015481;28;20053;-81
2022/11/07 11:31:18;;;;;;;1.13;1.00;;;14.30;99.90;;;;;;5006372;28;20497;-81
2022/11/07 11:33:56;;;;;;;10.82;1.48;;;14.40;99.90;;;;;;5028820;28;20042;-82
2022/11/07 11:36:26;;;;;;;7.45;1.33;;;14.40;99.90;;;;;;4997663;28;20050;-81
2022/11/07 11:38:53;;;;;;;2.13;1.25;;;14.40;99.90;;;;;;5014143;28;20459;-81
2022/11/07 11:41:35;;;;;;;0.90;0.85;;;14.40;99.90;;;;;;4997560;28;20050;-80
2022/11/07 11:44:19;;;;;;;10.10;1.73;;;14.30;99.90;;;;;;5013510;28;20124;-82
2022/11/07 11:46:51;;;;;;;2.65;1.45;;;14.30;99.90;;;;;;5013356;28;20050;-81
2022/11/07 11:49:27;;;;;;;8.45;1.45;;;14.30;99.90;;;;;;5013886;28;20319;-81
2022/11/07 11:52:02;;;;;;;6.68;1.75;;;14.30;99.90;;;;;;5013586;28;20405;-82
2022/11/07 11:54:27;;;;;;;5.68;1.30;;;14.40;99.90;;;;;;5013301;28;20046;-81
2022/11/07 11:57:03;;;;;;;6.63;1.17;;;14.50;99.90;;;;;;5013673;28;20556;-81
2022/11/07 11:59:47;;;;;;;4.90;1.48;;;14.50;99.90;;;;;;4998057;28;20054;-80
2022/11/07 12:02:32;;;;;;;4.40;1.30;;;14.60;99.90;;;;;;5014291;28;20054;-80
2022/11/07 12:05:16;;;;;;;6.35;1.08;;;14.60;99.90;;;;;;5013673;28;20052;-81
2022/11/07 12:07:54;;;;;;;1.00;0.85;;;14.60;99.90;;;;;;5014621;28;20058;-81
2022/11/07 12:10:40;;;;;;;2.28;0.88;;;14.60;99.90;;;;;;4997250;28;20061;-80
2022/11/07 12:13:34;;;;;;;3.58;1.35;;;14.50;99.90;;;;;;5013472;28;20046;-80
2022/11/07 12:16:05;;;;;;;4.07;1.33;;;14.50;99.90;;;;;;5009862;28;20401;-81
2022/11/07 12:18:49;;;;;;;6.18;1.67;;;14.50;99.90;;;;;;4993902;28;20053;-81
2022/11/07 12:21:27;;;;;;;1.80;0.88;;;14.40;99.90;;;;;;4993587;28;20057;-81
2022/11/07 12:24:18;;;;;;;1.02;0.82;;;14.40;99.90;;;;;;4992500;28;20458;-79
2022/11/07 12:26:58;;;;;;;2.00;0.70;;;14.40;99.90;;;;;;4993609;28;20050;-80
2022/11/07 12:30:02;;;;;;;2.00;1.33;;;14.40;99.90;;;;;;4993850;28;20050;-80
2022/11/07 12:32:48;;;;;;;1.50;0.75;;;14.60;99.90;;;;;;4993501;28;20053;-82
2022/11/07 12:35:32;;;;;;;6.00;1.20;;;14.70;99.90;;;;;;4999272;28;20121;-81
2022/11/07 12:38:36;;;;;;;3.05;0.95;;;14.70;99.90;;;;;;5017672;28;20045;-80
2022/11/07 12:41:13;;;;;;;3.97;1.08;;;14.60;99.90;;;;;;5001987;28;20559;-83
2022/11/07 12:44:00;;;;;;;8.07;1.58;;;14.60;99.90;;;;;;5014942;28;20101;-82
2022/11/07 12:46:49;;;;;;;3.20;0.95;;;14.50;99.90;;;;;;5018680;28;20132;-80
2022/11/07 12:49:36;;;;;;;5.25;1.17;;;14.40;99.90;;;;;;5007612;28;20465;-79
2022/11/07 12:52:34;;;;;;;2.75;1.20;;;14.40;99.90;;;;;;5032606;28;20049;-80
2022/11/07 12:55:03;;;;;;;2.13;0.98;;;14.40;99.90;;;;;;5016650;28;20038;-79
2022/11/07 12:57:35;;;;;;;4.72;1.38;;;14.40;99.90;;;;;;4997358;28;20155;-81
2022/11/07 13:00:13;;;;;;;5.47;1.25;;;14.40;99.90;;;;;;5013848;28;20097;-81
2022/11/07 13:02:51;;;;;;;8.02;1.63;;;14.30;99.90;;;;;;5012544;28;20069;-80
2022/11/07 13:05:47;;;;;;;2.92;1.05;;;14.30;99.90;;;;;;4995607;28;20053;-81
2022/11/07 13:08:38;;;;;;;4.95;1.52;;;14.30;99.90;;;;;;5012286;28;20061;-81
2022/11/07 13:11:15;;;;;;;2.42;1.00;;;14.20;99.90;;;;;;5012390;28;20109;-81
2022/11/07 13:13:53;;;;;;;6.13;1.65;;;14.20;99.90;;;;;;4995721;28;20434;-82